Time;durP1;ratioP1;P1;durP2;ratioP2;P2;SDS_P1;SDS_P2;PMS_P1;PMS_P2;Temp;Humidity;BMP_temperature;BMP_pressure;BME280_temperature;BME280_humidity;BME280_pressure;Samples;Min_cycle;Max_cycle;Signal;HPM_P1;HPM_P2
2022/02/15 00:01:59;;;;;;;6.03;2.95;;;;;;;;;;5132245;28;20082;-74
2022/02/15 00:04:26;;;;;;;3.63;2.10;;;;;;;;;;5134812;28;20130;-74
2022/02/15 00:06:52;;;;;;;5.63;3.55;;;;;;;;;;5134964;27;20077;-74
2022/02/15 00:09:19;;;;;;;4.05;2.28;;;;;;;;;;5138109;27;20138;-74
2022/02/15 00:11:45;;;;;;;3.67;2.10;;;;;;;;;;5137690;27;20147;-74
2022/02/15 00:14:14;;;;;;;6.72;2.50;;;;;;;;;;5138449;27;20078;-74
2022/02/15 00:16:40;;;;;;;5.22;2.85;;;;;;;;;;5138151;27;20117;-74
2022/02/15 00:19:08;;;;;;;5.47;3.20;;;;;;;;;;5138211;27;20126;-74
2022/02/15 00:21:35;;;;;;;5.68;2.67;;;;;;;;;;5137192;27;20046;-74
2022/02/15 00:24:01;;;;;;;3.60;2.33;;;;;;;;;;5137049;27;20558;-74
2022/02/15 00:26:34;;;;;;;5.88;3.10;;;;;;;;;;5138168;27;20178;-74
2022/02/15 00:29:01;;;;;;;4.38;2.80;;;;;;;;;;5138087;27;20071;-74
2022/02/15 00:31:29;;;;;;;5.45;3.65;;;;;;;;;;5138047;27;20066;-74
2022/02/15 00:33:56;;;;;;;4.35;2.40;;;;;;;;;;5138260;27;20079;-74
2022/02/15 00:36:22;;;;;;;4.85;2.72;;;;;;;;;;5137687;27;20104;-74
2022/02/15 00:38:49;;;;;;;5.55;3.22;;;;;;;;;;5138016;27;20077;-74
2022/02/15 00:41:15;;;;;;;5.78;3.08;;;;;;;;;;5136650;27;20074;-74
2022/02/15 00:43:42;;;;;;;6.20;2.75;;;;;;;;;;5137877;27;20042;-74
2022/02/15 00:46:09;;;;;;;6.78;3.00;;;;;;;;;;5137422;27;20122;-74
2022/02/15 00:48:36;;;;;;;5.13;3.40;;;;;;;;;;5136621;27;20523;-74
2022/02/15 00:51:03;;;;;;;5.05;2.58;;;;;;;;;;5136467;27;20542;-74
2022/02/15 00:53:29;;;;;;;7.22;3.35;;;;;;;;;;5137590;27;20070;-74
2022/02/15 00:55:56;;;;;;;5.47;2.97;;;;;;;;;;5137356;27;20134;-74
2022/02/15 00:58:22;;;;;;;6.47;3.38;;;;;;;;;;5137605;27;20066;-74
2022/02/15 01:00:49;;;;;;;5.80;3.33;;;;;;;;;;5136700;27;20130;-74
2022/02/15 01:03:16;;;;;;;5.40;2.80;;;;;;;;;;5135319;27;20467;-74
2022/02/15 01:05:44;;;;;;;6.38;3.95;;;;;;;;;;5137360;27;20126;-74
2022/02/15 01:08:12;;;;;;;5.07;3.42;;;;;;;;;;5137118;27;20039;-74
2022/02/15 01:10:38;;;;;;;6.18;2.90;;;;;;;;;;5136499;27;20038;-74
2022/02/15 01:13:05;;;;;;;5.57;2.83;;;;;;;;;;5137350;27;20118;-74
2022/02/15 01:15:31;;;;;;;4.30;2.97;;;;;;;;;;5137209;27;20424;-74
2022/02/15 01:17:58;;;;;;;6.03;3.20;;;;;;;;;;5137053;27;20372;-74
2022/02/15 01:20:25;;;;;;;4.85;3.03;;;;;;;;;;5136387;27;20131;-74
2022/02/15 01:22:53;;;;;;;7.05;3.25;;;;;;;;;;5137133;27;20122;-74
2022/02/15 01:25:19;;;;;;;6.03;3.30;;;;;;;;;;5137020;27;20126;-74
2022/02/15 01:27:46;;;;;;;5.88;3.33;;;;;;;;;;5137146;27;20078;-74
2022/02/15 01:30:12;;;;;;;7.07;3.65;;;;;;;;;;5136084;27;20482;-74
2022/02/15 01:32:39;;;;;;;6.25;3.67;;;;;;;;;;5136268;27;20446;-74
2022/02/15 01:35:06;;;;;;;7.05;3.60;;;;;;;;;;5137111;27;20134;-74
2022/02/15 01:37:32;;;;;;;7.95;3.88;;;;;;;;;;5136967;27;20077;-74
2022/02/15 01:40:00;;;;;;;5.97;3.63;;;;;;;;;;5136988;27;20134;-74
2022/02/15 01:42:27;;;;;;;6.47;3.60;;;;;;;;;;5136591;27;20075;-74
2022/02/15 01:44:53;;;;;;;6.47;3.95;;;;;;;;;;5136407;27;20126;-74
2022/02/15 01:47:24;;;;;;;8.25;4.35;;;;;;;;;;5136609;27;20130;-74
2022/02/15 01:49:51;;;;;;;11.32;4.80;;;;;;;;;;5136795;27;20082;-74
2022/02/15 01:52:20;;;;;;;9.23;4.63;;;;;;;;;;5136741;27;20039;-74
2022/02/15 01:54:47;;;;;;;8.13;3.97;;;;;;;;;;5136708;27;20054;-74
2022/02/15 01:57:15;;;;;;;7.32;4.70;;;;;;;;;;5136456;27;20434;-75
2022/02/15 01:59:41;;;;;;;10.25;4.97;;;;;;;;;;5136079;27;20122;-74
2022/02/15 02:02:08;;;;;;;8.32;4.88;;;;;;;;;;5134766;27;20096;-74
2022/02/15 02:07:19;;;;;;;9.82;5.70;;;;;;;;;;5135657;27;20053;-74
2022/02/15 02:09:45;;;;;;;8.48;4.72;;;;;;;;;;5135308;27;20463;-74
2022/02/15 02:12:12;;;;;;;12.02;6.00;;;;;;;;;;5135181;27;20509;-74
2022/02/15 02:14:40;;;;;;;12.18;5.68;;;;;;;;;;5136048;27;20074;-74
2022/02/15 02:17:07;;;;;;;9.48;5.97;;;;;;;;;;5135357;27;20082;-74
2022/02/15 02:19:33;;;;;;;10.07;5.20;;;;;;;;;;5135969;27;20046;-74
2022/02/15 02:22:01;;;;;;;10.13;5.55;;;;;;;;;;5135343;27;20081;-74
2022/02/15 02:24:28;;;;;;;10.65;5.90;;;;;;;;;;5135910;27;20070;-74
2022/02/15 02:26:54;;;;;;;12.43;5.55;;;;;;;;;;5134859;27;20510;-74
2022/02/15 02:29:21;;;;;;;9.77;5.68;;;;;;;;;;5135700;27;20066;-73
2022/02/15 02:31:47;;;;;;;9.98;5.55;;;;;;;;;;5135491;27;20066;-74
2022/02/15 02:34:14;;;;;;;11.70;6.13;;;;;;;;;;5134683;27;20547;-74
2022/02/15 02:36:44;;;;;;;11.75;6.28;;;;;;;;;;5135078;27;20073;-74
2022/02/15 02:39:12;;;;;;;10.48;5.55;;;;;;;;;;5135822;27;20118;-74
2022/02/15 02:41:38;;;;;;;11.73;6.45;;;;;;;;;;5135812;27;20089;-74
2022/02/15 02:44:05;;;;;;;10.68;5.72;;;;;;;;;;5135838;27;20134;-74
2022/02/15 02:46:32;;;;;;;16.55;6.25;;;;;;;;;;5135117;27;20122;-75
2022/02/15 02:48:58;;;;;;;11.40;5.85;;;;;;;;;;5135489;27;20078;-74
2022/02/15 02:51:25;;;;;;;10.60;5.95;;;;;;;;;;5134412;27;20519;-73
2022/02/15 02:53:51;;;;;;;10.85;6.25;;;;;;;;;;5134561;27;20131;-74
2022/02/15 02:56:19;;;;;;;12.20;6.78;;;;;;;;;;5135658;27;20078;-74
2022/02/15 02:58:46;;;;;;;13.25;5.85;;;;;;;;;;5134807;27;20074;-74
2022/02/15 03:01:12;;;;;;;11.35;6.05;;;;;;;;;;5135644;27;20135;-74
2022/02/15 03:03:39;;;;;;;9.68;5.10;;;;;;;;;;5133679;28;20526;-74
2022/02/15 03:06:06;;;;;;;12.52;5.57;;;;;;;;;;5135015;28;20129;-74
2022/02/15 03:08:32;;;;;;;11.73;6.28;;;;;;;;;;5134373;28;20043;-74
2022/02/15 03:11:00;;;;;;;9.60;5.70;;;;;;;;;;5134981;28;20130;-74
2022/02/15 03:13:28;;;;;;;10.68;5.95;;;;;;;;;;5135276;28;20043;-74
2022/02/15 03:15:54;;;;;;;8.90;5.45;;;;;;;;;;5135208;28;20130;-74
2022/02/15 03:18:21;;;;;;;9.40;5.40;;;;;;;;;;5134900;28;20066;-75
2022/02/15 03:20:47;;;;;;;9.52;5.38;;;;;;;;;;5135185;28;20085;-74
2022/02/15 03:23:14;;;;;;;11.55;5.95;;;;;;;;;;5134856;28;20096;-74
2022/02/15 03:25:40;;;;;;;10.45;6.13;;;;;;;;;;5133985;28;20501;-74
2022/02/15 03:28:07;;;;;;;9.80;5.63;;;;;;;;;;5134844;28;20047;-74
2022/02/15 03:30:35;;;;;;;9.75;5.70;;;;;;;;;;5134301;28;20439;-74
2022/02/15 03:33:01;;;;;;;8.80;5.03;;;;;;;;;;5134245;28;20074;-74
2022/02/15 03:35:28;;;;;;;9.55;5.40;;;;;;;;;;5134969;28;20096;-74
2022/02/15 03:37:54;;;;;;;9.25;5.85;;;;;;;;;;5134027;28;20416;-74
2022/02/15 03:40:21;;;;;;;9.70;5.03;;;;;;;;;;5134949;28;20078;-74
2022/02/15 03:43:05;;;;;;;9.65;5.45;;;;;;;;;;5135908;27;20085;-74
2022/02/15 03:45:31;;;;;;;7.50;4.75;;;;;;;;;;5139116;27;20046;-74
2022/02/15 03:47:59;;;;;;;7.88;4.68;;;;;;;;;;5138195;27;20360;-74
2022/02/15 03:50:26;;;;;;;8.20;4.15;;;;;;;;;;5138546;27;20039;-74
2022/02/15 03:52:53;;;;;;;7.57;3.97;;;;;;;;;;5138848;27;20070;-74
2022/02/15 03:55:20;;;;;;;9.45;5.50;;;;;;;;;;5138654;27;20106;-74
2022/02/15 03:57:46;;;;;;;8.35;4.45;;;;;;;;;;5137857;27;20544;-74
2022/02/15 04:00:14;;;;;;;7.80;4.15;;;;;;;;;;5138925;27;20107;-73
2022/02/15 04:02:41;;;;;;;9.55;4.70;;;;;;;;;;5136466;27;20082;-74
2022/02/15 04:05:09;;;;;;;9.32;4.32;;;;;;;;;;5138709;27;20086;-74
2022/02/15 04:07:36;;;;;;;8.38;4.50;;;;;;;;;;5138765;27;20104;-74
2022/02/15 04:10:03;;;;;;;5.93;3.92;;;;;;;;;;5138494;27;20070;-74
2022/02/15 04:12:30;;;;;;;7.07;3.50;;;;;;;;;;5137792;27;20070;-74
2022/02/15 04:14:56;;;;;;;7.00;4.28;;;;;;;;;;5138468;27;20047;-74
2022/02/15 04:17:23;;;;;;;7.10;3.78;;;;;;;;;;5138380;27;20430;-74
2022/02/15 04:19:49;;;;;;;6.82;4.30;;;;;;;;;;5137294;27;20086;-74
2022/02/15 04:22:17;;;;;;;7.70;3.95;;;;;;;;;;5138156;27;20077;-75
2022/02/15 04:24:44;;;;;;;6.43;3.38;;;;;;;;;;5138031;27;20084;-74
2022/02/15 04:27:10;;;;;;;6.93;4.18;;;;;;;;;;5137734;27;20081;-75
2022/02/15 04:29:37;;;;;;;6.90;3.60;;;;;;;;;;5137933;27;20043;-75
2022/02/15 04:32:04;;;;;;;9.35;3.58;;;;;;;;;;5137946;27;20071;-74
2022/02/15 04:34:30;;;;;;;7.28;3.35;;;;;;;;;;5136782;27;20443;-74
2022/02/15 04:36:57;;;;;;;6.35;3.38;;;;;;;;;;5137591;27;20082;-74
2022/02/15 04:39:25;;;;;;;6.13;3.20;;;;;;;;;;5136939;27;20070;-77
2022/02/15 04:41:51;;;;;;;7.38;3.85;;;;;;;;;;5137920;27;20135;-75
2022/02/15 04:44:18;;;;;;;7.28;4.05;;;;;;;;;;5136872;27;20471;-75
2022/02/15 04:46:45;;;;;;;5.65;2.60;;;;;;;;;;5136587;27;20043;-75
2022/02/15 04:49:11;;;;;;;5.45;2.90;;;;;;;;;;5136891;27;20047;-75
2022/02/15 04:51:38;;;;;;;6.30;2.80;;;;;;;;;;5137003;27;20067;-75
2022/02/15 04:54:04;;;;;;;5.22;2.80;;;;;;;;;;5137334;27;20071;-74
2022/02/15 04:56:32;;;;;;;5.22;3.00;;;;;;;;;;5137567;27;20074;-75
2022/02/15 04:58:59;;;;;;;6.15;2.95;;;;;;;;;;5136626;27;20495;-75
2022/02/15 05:01:25;;;;;;;5.68;2.95;;;;;;;;;;5136725;27;20086;-74
2022/02/15 05:03:52;;;;;;;5.40;2.60;;;;;;;;;;5136203;27;20074;-76
2022/02/15 05:06:18;;;;;;;6.22;3.17;;;;;;;;;;5137644;27;20088;-76
2022/02/15 05:08:46;;;;;;;7.20;3.17;;;;;;;;;;5137453;27;20096;-76
2022/02/15 05:11:13;;;;;;;7.38;3.75;;;;;;;;;;5137163;27;20046;-75
2022/02/15 05:13:41;;;;;;;5.20;3.15;;;;;;;;;;5137502;27;20047;-75
2022/02/15 05:16:07;;;;;;;6.07;2.75;;;;;;;;;;5137068;27;20075;-75
2022/02/15 05:18:34;;;;;;;6.80;2.63;;;;;;;;;;5137282;27;20093;-75
2022/02/15 05:21:02;;;;;;;10.85;3.38;;;;;;;;;;5137112;27;20089;-76
2022/02/15 05:23:28;;;;;;;5.85;2.90;;;;;;;;;;5137278;27;20152;-75
2022/02/15 05:25:55;;;;;;;6.25;3.00;;;;;;;;;;5136745;27;20406;-75
2022/02/15 05:28:21;;;;;;;6.80;2.97;;;;;;;;;;5136873;27;20043;-76
2022/02/15 05:30:49;;;;;;;3.72;2.00;;;;;;;;;;5135962;27;20535;-75
2022/02/15 05:33:16;;;;;;;6.20;2.47;;;;;;;;;;5137131;27;20075;-76
2022/02/15 05:35:42;;;;;;;4.43;2.42;;;;;;;;;;5137046;27;20075;-75
2022/02/15 05:38:09;;;;;;;7.15;2.90;;;;;;;;;;5136959;27;20093;-75
2022/02/15 05:40:35;;;;;;;5.18;2.10;;;;;;;;;;5136471;27;20043;-76
2022/02/15 05:43:03;;;;;;;5.63;2.83;;;;;;;;;;5136447;27;20043;-75
2022/02/15 05:45:30;;;;;;;5.55;2.40;;;;;;;;;;5136748;27;20047;-75
2022/02/15 05:47:58;;;;;;;5.75;2.13;;;;;;;;;;5135651;27;20043;-75
2022/02/15 05:53:08;;;;;;;5.05;1.83;;;;;;;;;;5135859;27;20131;-75
2022/02/15 05:55:35;;;;;;;4.30;2.15;;;;;;;;;;5136747;27;20078;-75
2022/02/15 05:58:02;;;;;;;5.03;2.20;;;;;;;;;;5136895;27;20074;-78
2022/02/15 06:00:28;;;;;;;4.68;2.33;;;;;;;;;;5139577;27;20070;-77
2022/02/15 06:02:54;;;;;;;5.40;2.10;;;;;;;;;;5134068;27;20089;-75
2022/02/15 06:05:23;;;;;;;4.22;2.00;;;;;;;;;;5137588;27;20067;-79
2022/02/15 06:07:49;;;;;;;5.18;2.22;;;;;;;;;;5136169;27;20127;-75
2022/02/15 06:10:16;;;;;;;3.75;2.15;;;;;;;;;;5135999;27;20067;-74
2022/02/15 06:12:49;;;;;;;3.80;1.98;;;;;;;;;;5135011;27;20070;-74
2022/02/15 06:15:15;;;;;;;5.13;2.10;;;;;;;;;;5135873;27;20082;-75
2022/02/15 06:17:42;;;;;;;5.63;2.08;;;;;;;;;;5135787;27;20070;-74
2022/02/15 06:20:10;;;;;;;11.77;5.78;;;;;;;;;;5134994;27;20078;-74
2022/02/15 06:22:40;;;;;;;4.60;2.20;;;;;;;;;;5136230;27;20039;-74
2022/02/15 06:25:07;;;;;;;5.45;2.50;;;;;;;;;;5135630;27;20039;-74
2022/02/15 06:27:34;;;;;;;4.30;2.10;;;;;;;;;;5135597;27;20101;-74
2022/02/15 06:30:00;;;;;;;3.20;1.80;;;;;;;;;;5135025;27;20060;-74
2022/02/15 06:32:27;;;;;;;4.43;2.40;;;;;;;;;;5135008;27;20095;-75
2022/02/15 06:34:53;;;;;;;5.35;2.10;;;;;;;;;;5135284;27;20093;-75
2022/02/15 06:37:20;;;;;;;7.63;2.40;;;;;;;;;;5135636;27;20079;-74
2022/02/15 06:39:48;;;;;;;6.97;2.63;;;;;;;;;;5135302;27;20077;-74
2022/02/15 06:42:14;;;;;;;6.53;3.17;;;;;;;;;;5135508;27;20039;-74
2022/02/15 06:44:41;;;;;;;4.60;2.13;;;;;;;;;;5135122;27;20046;-74
2022/02/15 06:47:07;;;;;;;12.38;3.58;;;;;;;;;;5134133;27;20503;-74
2022/02/15 06:49:34;;;;;;;5.00;2.70;;;;;;;;;;5134120;27;20039;-74
2022/02/15 06:52:00;;;;;;;3.85;2.17;;;;;;;;;;5135306;27;20047;-74
2022/02/15 06:54:27;;;;;;;4.45;2.40;;;;;;;;;;5135383;27;20424;-74
2022/02/15 06:56:55;;;;;;;4.82;2.38;;;;;;;;;;5135308;27;20070;-74
2022/02/15 06:59:22;;;;;;;5.93;3.50;;;;;;;;;;5134416;27;20104;-75
2022/02/15 07:01:50;;;;;;;3.50;2.17;;;;;;;;;;5134908;27;20111;-74
2022/02/15 07:04:16;;;;;;;4.85;2.38;;;;;;;;;;5133322;27;20134;-74
2022/02/15 07:06:43;;;;;;;6.18;2.78;;;;;;;;;;5135137;28;20077;-74
2022/02/15 07:09:09;;;;;;;5.70;2.53;;;;;;;;;;5134962;28;20073;-74
2022/02/15 07:11:36;;;;;;;4.10;2.50;;;;;;;;;;5134117;28;20475;-74
2022/02/15 07:14:04;;;;;;;5.38;3.28;;;;;;;;;;5135234;28;20075;-74
2022/02/15 07:16:31;;;;;;;4.32;2.13;;;;;;;;;;5134569;27;20072;-74
2022/02/15 07:18:58;;;;;;;4.53;2.42;;;;;;;;;;5139424;27;20427;-74
2022/02/15 07:21:25;;;;;;;4.68;2.25;;;;;;;;;;5138514;27;20075;-74
2022/02/15 07:23:51;;;;;;;5.93;2.28;;;;;;;;;;5138217;27;20086;-74
2022/02/15 07:26:18;;;;;;;5.40;2.78;;;;;;;;;;5139403;27;20081;-74
2022/02/15 07:28:45;;;;;;;7.32;3.40;;;;;;;;;;5138375;27;20130;-74
2022/02/15 07:31:14;;;;;;;7.90;3.63;;;;;;;;;;5138232;27;20043;-75
2022/02/15 07:33:40;;;;;;;10.48;4.50;;;;;;;;;;5139118;27;20047;-74
2022/02/15 07:36:07;;;;;;;8.40;3.63;;;;;;;;;;5138536;27;20085;-75
2022/02/15 07:38:33;;;;;;;3.88;2.20;;;;;;;;;;5139127;27;20079;-74
2022/02/15 07:41:00;;;;;;;4.82;2.40;;;;;;;;;;5138460;27;20043;-74
2022/02/15 07:43:26;;;;;;;5.05;2.70;;;;;;;;;;5138341;27;20082;-75
2022/02/15 07:45:53;;;;;;;5.07;2.85;;;;;;;;;;5138284;27;20440;-74
2022/02/15 07:48:21;;;;;;;5.70;3.05;;;;;;;;;;5138233;27;20111;-75
2022/02/15 07:50:48;;;;;;;5.03;3.38;;;;;;;;;;5138813;27;20067;-75
2022/02/15 07:53:15;;;;;;;5.90;3.00;;;;;;;;;;5138765;27;20071;-74
2022/02/15 07:55:42;;;;;;;5.47;2.97;;;;;;;;;;5137778;27;20082;-74
2022/02/15 07:58:08;;;;;;;4.68;2.90;;;;;;;;;;5137745;27;20424;-74
2022/02/15 08:00:35;;;;;;;4.60;2.70;;;;;;;;;;5137915;27;20093;-74
2022/02/15 08:03:01;;;;;;;4.97;2.22;;;;;;;;;;5136319;27;20535;-74
2022/02/15 08:05:29;;;;;;;5.75;2.80;;;;;;;;;;5138775;27;20036;-74
2022/02/15 08:07:57;;;;;;;5.47;2.92;;;;;;;;;;5137799;27;20082;-75
2022/02/15 08:10:26;;;;;;;4.68;2.35;;;;;;;;;;5137793;27;20075;-75
2022/02/15 08:12:55;;;;;;;4.60;2.45;;;;;;;;;;5138322;27;20039;-75
2022/02/15 08:15:23;;;;;;;3.67;2.22;;;;;;;;;;5138359;27;20126;-74
2022/02/15 08:17:50;;;;;;;6.28;2.70;;;;;;;;;;5138534;27;20078;-74
2022/02/15 08:20:16;;;;;;;7.10;3.38;;;;;;;;;;5138218;27;20043;-74
2022/02/15 08:22:44;;;;;;;5.70;3.25;;;;;;;;;;5137636;27;20084;-74
2022/02/15 08:25:11;;;;;;;5.97;4.07;;;;;;;;;;5137274;27;20479;-75
2022/02/15 08:27:37;;;;;;;5.88;3.10;;;;;;;;;;5138315;27;20039;-74
2022/02/15 08:30:05;;;;;;;3.30;2.05;;;;;;;;;;5137289;27;20095;-75
2022/02/15 08:32:31;;;;;;;4.43;2.55;;;;;;;;;;5137350;27;20043;-75
2022/02/15 08:34:58;;;;;;;4.30;2.38;;;;;;;;;;5138023;27;20067;-75
2022/02/15 08:37:25;;;;;;;5.70;3.35;;;;;;;;;;5138164;27;20092;-74
2022/02/15 08:39:53;;;;;;;4.75;2.47;;;;;;;;;;5136945;27;20043;-74
2022/02/15 08:42:20;;;;;;;5.13;2.50;;;;;;;;;;5137794;27;20090;-75
2022/02/15 08:44:49;;;;;;;3.92;2.58;;;;;;;;;;5137192;27;20096;-75
2022/02/15 08:47:16;;;;;;;4.28;2.55;;;;;;;;;;5135297;27;20039;-76
2022/02/15 08:49:42;;;;;;;7.65;2.90;;;;;;;;;;5136813;27;20469;-75
2022/02/15 08:52:09;;;;;;;5.50;2.15;;;;;;;;;;5137896;27;20071;-75
2022/02/15 08:54:35;;;;;;;4.80;2.65;;;;;;;;;;5137616;27;20047;-75
2022/02/15 08:57:04;;;;;;;7.07;3.40;;;;;;;;;;5136582;27;20485;-75
2022/02/15 08:59:30;;;;;;;6.55;3.47;;;;;;;;;;5136805;27;20115;-75
2022/02/15 09:01:57;;;;;;;7.97;3.05;;;;;;;;;;5137698;27;20126;-75
2022/02/15 09:04:23;;;;;;;4.50;2.60;;;;;;;;;;5135641;27;20471;-75
2022/02/15 09:06:51;;;;;;;6.22;3.20;;;;;;;;;;5137469;27;20058;-75
2022/02/15 09:09:18;;;;;;;7.63;3.75;;;;;;;;;;5136420;27;20039;-74
2022/02/15 09:11:45;;;;;;;5.32;3.15;;;;;;;;;;5136349;27;20050;-76
2022/02/15 09:14:13;;;;;;;8.18;2.72;;;;;;;;;;5137381;27;20039;-75
2022/02/15 09:16:39;;;;;;;5.13;2.80;;;;;;;;;;5137412;27;20415;-76
2022/02/15 09:19:06;;;;;;;6.30;3.15;;;;;;;;;;5137414;27;20125;-75
2022/02/15 09:21:34;;;;;;;4.00;2.67;;;;;;;;;;5136497;27;20056;-75
2022/02/15 09:24:01;;;;;;;5.63;3.55;;;;;;;;;;5136221;27;20412;-75
2022/02/15 09:26:27;;;;;;;5.90;3.00;;;;;;;;;;5136263;27;20118;-75
2022/02/15 09:28:54;;;;;;;5.78;2.80;;;;;;;;;;5137167;27;20043;-75
2022/02/15 09:31:22;;;;;;;4.82;3.05;;;;;;;;;;5137137;27;20092;-75
2022/02/15 09:33:52;;;;;;;5.55;2.88;;;;;;;;;;5136028;27;20039;-75
2022/02/15 09:36:18;;;;;;;5.30;2.92;;;;;;;;;;5136972;27;20123;-75
2022/02/15 09:38:45;;;;;;;5.68;3.08;;;;;;;;;;5136693;27;20075;-74
2022/02/15 09:41:12;;;;;;;6.38;2.97;;;;;;;;;;5135834;27;20066;-74
2022/02/15 09:43:38;;;;;;;4.95;2.90;;;;;;;;;;5135767;27;20523;-75
2022/02/15 09:46:08;;;;;;;4.90;2.67;;;;;;;;;;5133635;27;20122;-76
2022/02/15 09:48:36;;;;;;;7.43;3.67;;;;;;;;;;5136395;27;20071;-75
2022/02/15 09:51:04;;;;;;;6.38;3.38;;;;;;;;;;5136740;27;20040;-75
2022/02/15 09:53:30;;;;;;;5.80;3.30;;;;;;;;;;5135581;27;20054;-75
2022/02/15 09:55:57;;;;;;;8.35;3.28;;;;;;;;;;5136357;27;20096;-75
2022/02/15 09:58:23;;;;;;;6.00;3.97;;;;;;;;;;5135382;27;20047;-75
2022/02/15 10:00:51;;;;;;;5.03;3.00;;;;;;;;;;5136313;27;20490;-74
2022/02/15 10:03:17;;;;;;;5.78;3.22;;;;;;;;;;5134781;27;20167;-75
2022/02/15 10:05:50;;;;;;;5.20;2.80;;;;;;;;;;5135664;27;20081;-75
2022/02/15 10:08:25;;;;;;;5.80;3.50;;;;;;;;;;5136085;27;20125;-75
2022/02/15 10:10:51;;;;;;;7.33;3.23;;;;;;;;;;5135256;27;20082;-75
2022/02/15 10:13:18;;;;;;;5.85;3.45;;;;;;;;;;5135535;27;20298;-75
2022/02/15 10:15:45;;;;;;;7.13;3.50;;;;;;;;;;5136611;27;20047;-75
2022/02/15 10:18:14;;;;;;;5.40;3.25;;;;;;;;;;5136537;27;20058;-75
2022/02/15 10:20:42;;;;;;;7.10;3.38;;;;;;;;;;5136228;27;20393;-75
2022/02/15 10:23:18;;;;;;;6.85;3.67;;;;;;;;;;5135065;27;20463;-75
2022/02/15 10:25:45;;;;;;;9.93;4.00;;;;;;;;;;5136127;27;20036;-75
2022/02/15 10:28:14;;;;;;;7.13;4.10;;;;;;;;;;5135670;27;20035;-75
2022/02/15 10:30:48;;;;;;;7.15;3.63;;;;;;;;;;5135693;27;20083;-75
2022/02/15 10:33:15;;;;;;;8.65;3.58;;;;;;;;;;5134702;27;20475;-75
2022/02/15 10:35:51;;;;;;;6.72;3.60;;;;;;;;;;5134786;27;20074;-75
2022/02/15 10:38:27;;;;;;;6.97;4.00;;;;;;;;;;5137029;27;20424;-76
2022/02/15 10:40:58;;;;;;;;;;;;;;;;;;5138400;27;20043;-75
2022/02/15 10:43:26;;;;;;;7.15;3.85;;;;;;;;;;5135561;27;19915;-75
2022/02/15 10:45:52;;;;;;;6.30;4.35;;;;;;;;;;5135461;27;20078;-75
2022/02/15 10:48:28;;;;;;;20.55;8.68;;;;;;;;;;5134330;27;20543;-75
2022/02/15 10:50:56;;;;;;;14.13;6.43;;;;;;;;;;5135713;27;20385;-75
2022/02/15 10:53:23;;;;;;;9.18;4.72;;;;;;;;;;5134206;27;20538;-75
2022/02/15 10:55:51;;;;;;;8.02;4.13;;;;;;;;;;5135381;27;20066;-75
2022/02/15 10:58:19;;;;;;;7.45;4.05;;;;;;;;;;5134425;27;20043;-75
2022/02/15 11:00:45;;;;;;;5.72;3.30;;;;;;;;;;5134773;27;20126;-75
2022/02/15 11:03:37;;;;;;;6.60;4.22;;;;;;;;;;5133718;27;20050;-75
2022/02/15 11:06:10;;;;;;;6.07;4.03;;;;;;;;;;5135473;28;20067;-75
2022/02/15 11:08:38;;;;;;;8.32;4.28;;;;;;;;;;5135108;28;20119;-75
2022/02/15 11:11:10;;;;;;;9.55;4.32;;;;;;;;;;5134291;28;20431;-75
2022/02/15 11:13:39;;;;;;;7.07;4.35;;;;;;;;;;5134618;28;20074;-75
2022/02/15 11:16:11;;;;;;;7.03;4.18;;;;;;;;;;5135429;28;20070;-75
2022/02/15 11:18:38;;;;;;;10.20;4.70;;;;;;;;;;5135409;28;20074;-75
2022/02/15 11:21:06;;;;;;;6.72;4.30;;;;;;;;;;5135357;28;20130;-75
2022/02/15 11:23:33;;;;;;;6.10;4.00;;;;;;;;;;5135381;28;20122;-75
2022/02/15 11:26:11;;;;;;;7.70;4.20;;;;;;;;;;5134974;28;20122;-75
2022/02/15 11:28:48;;;;;;;6.38;3.78;;;;;;;;;;5135156;28;20046;-75
2022/02/15 11:31:25;;;;;;;9.15;4.55;;;;;;;;;;5134426;28;20127;-75
2022/02/15 11:33:53;;;;;;;7.68;4.43;;;;;;;;;;5135258;28;20075;-75
2022/02/15 11:36:23;;;;;;;9.02;4.22;;;;;;;;;;5134684;28;20047;-75
2022/02/15 11:38:54;;;;;;;7.95;4.38;;;;;;;;;;5134052;28;20394;-75
2022/02/15 11:41:23;;;;;;;10.20;5.63;;;;;;;;;;5133945;28;20536;-75
2022/02/15 11:43:56;;;;;;;11.38;5.47;;;;;;;;;;5134322;28;20071;-75
2022/02/15 11:46:30;;;;;;;11.65;5.90;;;;;;;;;;5133942;28;20495;-75
2022/02/15 11:48:57;;;;;;;10.52;5.35;;;;;;;;;;5135118;28;20435;-76
2022/02/15 11:51:26;;;;;;;10.75;5.82;;;;;;;;;;5130966;28;20474;-75
2022/02/15 11:53:56;;;;;;;9.77;5.78;;;;;;;;;;5135128;28;20095;-75
2022/02/15 11:56:24;;;;;;;7.57;4.90;;;;;;;;;;5135041;28;20050;-75
2022/02/15 11:58:52;;;;;;;10.10;4.30;;;;;;;;;;5134753;28;20070;-75
2022/02/15 12:01:23;;;;;;;6.82;3.97;;;;;;;;;;5133911;28;20486;-75
2022/02/15 12:03:50;;;;;;;7.80;3.80;;;;;;;;;;5125152;27;20130;-75
2022/02/15 12:06:17;;;;;;;7.35;4.20;;;;;;;;;;5118264;28;20043;-75
2022/02/15 12:08:53;;;;;;;6.80;4.10;;;;;;;;;;5116988;28;20483;-75
2022/02/15 12:11:20;;;;;;;;;;;;;;;;;;5118478;28;20074;-75
2022/02/15 12:13:48;;;;;;;7.28;3.65;;;;;;;;;;5116832;28;20010;-75
2022/02/15 12:16:15;;;;;;;5.03;2.97;;;;;;;;;;5118058;28;20071;-75
2022/02/15 12:18:42;;;;;;;8.13;3.47;;;;;;;;;;5118043;28;20078;-75
2022/02/15 12:21:08;;;;;;;4.65;3.00;;;;;;;;;;5117978;28;20048;-75
2022/02/15 12:23:38;;;;;;;7.03;3.90;;;;;;;;;;5117784;28;20418;-75
2022/02/15 12:26:07;;;;;;;5.53;3.70;;;;;;;;;;5117817;28;20071;-75
2022/02/15 12:28:33;;;;;;;6.35;3.13;;;;;;;;;;5117802;28;20075;-75
2022/02/15 12:31:01;;;;;;;5.93;3.53;;;;;;;;;;5116685;28;20417;-75
2022/02/15 12:33:34;;;;;;;7.07;3.75;;;;;;;;;;5116605;28;20483;-75
2022/02/15 12:36:00;;;;;;;7.03;3.83;;;;;;;;;;5116821;28;20047;-75
2022/02/15 12:38:36;;;;;;;5.80;3.55;;;;;;;;;;5117330;28;20075;-75
2022/02/15 12:41:03;;;;;;;6.70;3.70;;;;;;;;;;5117591;28;20127;-75
2022/02/15 12:43:29;;;;;;;6.93;3.25;;;;;;;;;;5116403;28;20478;-75
2022/02/15 12:45:56;;;;;;;5.70;3.40;;;;;;;;;;5116688;28;20074;-75
2022/02/15 12:48:24;;;;;;;7.65;3.67;;;;;;;;;;5116393;28;20071;-75
2022/02/15 12:50:50;;;;;;;4.38;2.78;;;;;;;;;;5116327;28;20534;-75
2022/02/15 12:53:17;;;;;;;5.53;3.38;;;;;;;;;;5116796;28;20055;-75
2022/02/15 12:55:49;;;;;;;5.65;3.20;;;;;;;;;;5117293;28;20094;-75
2022/02/15 12:58:15;;;;;;;5.05;2.80;;;;;;;;;;5116384;28;20079;-75
2022/02/15 13:00:42;;;;;;;5.80;3.00;;;;;;;;;;5116868;28;20043;-75
2022/02/15 13:03:10;;;;;;;7.78;4.05;;;;;;;;;;5115532;28;20130;-75
2022/02/15 13:05:39;;;;;;;4.57;2.00;;;;;;;;;;5117019;28;20044;-76
2022/02/15 13:08:16;;;;;;;4.85;2.05;;;;;;;;;;5115831;28;20433;-75
2022/02/15 13:10:42;;;;;;;5.28;2.83;;;;;;;;;;5117009;28;20463;-75
2022/02/15 13:13:10;;;;;;;4.93;2.72;;;;;;;;;;5116960;28;20134;-75
2022/02/15 13:15:36;;;;;;;3.47;1.60;;;;;;;;;;5115468;28;20477;-75
2022/02/15 13:18:07;;;;;;;3.80;1.80;;;;;;;;;;5116789;28;20130;-75
2022/02/15 13:20:39;;;;;;;4.95;1.83;;;;;;;;;;5117103;28;20047;-76
2022/02/15 13:23:06;;;;;;;3.40;1.90;;;;;;;;;;5119004;28;20081;-75
2022/02/15 13:25:42;;;;;;;5.22;2.10;;;;;;;;;;5118308;28;20044;-75
2022/02/15 13:28:09;;;;;;;3.33;1.50;;;;;;;;;;5117327;28;20082;-75
2022/02/15 13:30:35;;;;;;;3.40;1.60;;;;;;;;;;5116096;28;20122;-75
2022/02/15 13:33:04;;;;;;;6.97;2.45;;;;;;;;;;5117484;28;20134;-75
2022/02/15 13:35:32;;;;;;;3.83;1.60;;;;;;;;;;5116767;28;20426;-74
2022/02/15 13:38:00;;;;;;;1.98;1.08;;;;;;;;;;5116980;28;20071;-74
2022/02/15 13:40:27;;;;;;;2.47;1.40;;;;;;;;;;5116806;28;20078;-74
2022/02/15 13:42:54;;;;;;;3.75;2.10;;;;;;;;;;5115058;28;20527;-74
2022/02/15 13:45:21;;;;;;;3.30;1.50;;;;;;;;;;5115518;28;20061;-74
2022/02/15 13:47:47;;;;;;;2.53;1.20;;;;;;;;;;5115468;28;20071;-74
2022/02/15 13:50:14;;;;;;;3.63;1.42;;;;;;;;;;5115733;28;20066;-74
2022/02/15 13:52:40;;;;;;;6.45;3.28;;;;;;;;;;5115465;28;20421;-75
2022/02/15 13:55:10;;;;;;;7.82;4.13;;;;;;;;;;5116043;28;20126;-75
2022/02/15 13:57:37;;;;;;;3.63;1.73;;;;;;;;;;5114985;28;20041;-74
2022/02/15 14:00:05;;;;;;;3.58;1.75;;;;;;;;;;5115397;28;20123;-74
2022/02/15 14:02:32;;;;;;;3.80;1.80;;;;;;;;;;5115966;28;20341;-74
2022/02/15 14:04:58;;;;;;;4.68;2.25;;;;;;;;;;5113829;28;20047;-74
2022/02/15 14:07:25;;;;;;;6.65;2.05;;;;;;;;;;5115919;28;20078;-74
2022/02/15 14:09:52;;;;;;;4.47;2.45;;;;;;;;;;5114686;28;20522;-74
2022/02/15 14:12:20;;;;;;;6.07;2.30;;;;;;;;;;5115829;28;20082;-74
2022/02/15 14:14:47;;;;;;;4.10;1.80;;;;;;;;;;5114644;28;20525;-74
2022/02/15 14:19:57;;;;;;;3.00;1.65;;;;;;;;;;5114975;28;20131;-74
2022/02/15 14:22:24;;;;;;;3.70;1.30;;;;;;;;;;5115658;28;20096;-74
2022/02/15 14:24:51;;;;;;;3.50;1.83;;;;;;;;;;5115245;28;20100;-74
2022/02/15 14:27:17;;;;;;;4.68;2.00;;;;;;;;;;5114989;28;20122;-74
2022/02/15 14:29:45;;;;;;;8.73;3.53;;;;;;;;;;5114551;28;20078;-74
2022/02/15 14:32:12;;;;;;;4.63;2.60;;;;;;;;;;5114930;28;20448;-74
2022/02/15 14:34:38;;;;;;;3.58;1.48;;;;;;;;;;5115440;28;20078;-74
2022/02/15 14:37:05;;;;;;;3.35;1.80;;;;;;;;;;5115266;28;20082;-74
2022/02/15 14:39:31;;;;;;;5.25;2.33;;;;;;;;;;5114521;28;20093;-74
2022/02/15 14:41:58;;;;;;;5.13;2.20;;;;;;;;;;5115270;28;20123;-74
2022/02/15 14:44:24;;;;;;;5.82;2.58;;;;;;;;;;5114063;28;20539;-74
2022/02/15 14:46:52;;;;;;;5.57;2.80;;;;;;;;;;5114892;28;20074;-74
2022/02/15 14:49:19;;;;;;;6.05;2.70;;;;;;;;;;5115168;28;20126;-74
2022/02/15 14:51:45;;;;;;;8.23;3.00;;;;;;;;;;5115152;28;20130;-74
2022/02/15 14:54:12;;;;;;;5.57;2.40;;;;;;;;;;5114284;28;20461;-74